Time;durP1;ratioP1;P1;durP2;ratioP2;P2;SDS_P1;SDS_P2;PMS_P1;PMS_P2;Temp;Humidity;BMP_temperature;BMP_pressure;BME280_temperature;BME280_humidity;BME280_pressure;Samples;Min_cycle;Max_cycle;Signal;HPM_P1;HPM_P2
2023/12/30 00:01:48;;;;;;;13.00;2.05;;;;;;;;;;5048555;28;20082;-75
2023/12/30 00:04:14;;;;;;;19.20;2.90;;;;;;;;;;5045008;28;20028;-74
2023/12/30 00:06:40;;;;;;;18.27;3.70;;;;;;;;;;5045219;28;20413;-74
2023/12/30 00:09:07;;;;;;;15.57;2.42;;;;;;;;;;5046271;28;20025;-74
2023/12/30 00:11:33;;;;;;;12.73;2.30;;;;;;;;;;5048121;28;20044;-74
2023/12/30 00:13:59;;;;;;;15.38;2.03;;;;;;;;;;5046292;28;20033;-74
2023/12/30 00:16:27;;;;;;;15.73;3.00;;;;;;;;;;5046366;28;20039;-75
2023/12/30 00:18:54;;;;;;;13.77;2.78;;;;;;;;;;5048135;28;20029;-74
2023/12/30 00:21:20;;;;;;;14.30;2.47;;;;;;;;;;5030899;28;20090;-74
2023/12/30 00:23:46;;;;;;;13.13;1.80;;;;;;;;;;5045330;28;20021;-74
2023/12/30 00:26:22;;;;;;;11.48;2.30;;;;;;;;;;5048132;28;20029;-74
2023/12/30 00:29:00;;;;;;;21.40;2.50;;;;;;;;;;5029494;28;20048;-74
2023/12/30 00:31:27;;;;;;;19.60;3.70;;;;;;;;;;5029268;28;20041;-75
2023/12/30 00:33:56;;;;;;;13.60;2.25;;;;;;;;;;5047435;28;20021;-75
2023/12/30 00:36:22;;;;;;;18.23;3.35;;;;;;;;;;5046978;28;20037;-75
2023/12/30 00:38:48;;;;;;;12.98;2.30;;;;;;;;;;5044046;28;20036;-74
2023/12/30 00:41:15;;;;;;;14.20;2.03;;;;;;;;;;5047393;28;20373;-74
2023/12/30 00:43:42;;;;;;;14.60;2.63;;;;;;;;;;5046318;28;20037;-74
2023/12/30 00:46:08;;;;;;;16.15;2.45;;;;;;;;;;5049180;28;20022;-75
2023/12/30 00:48:34;;;;;;;12.77;2.20;;;;;;;;;;5046544;28;20110;-75
2023/12/30 00:51:01;;;;;;;11.77;1.70;;;;;;;;;;5045494;28;20393;-75
2023/12/30 00:53:28;;;;;;;15.20;1.90;;;;;;;;;;5045956;28;20104;-74
2023/12/30 00:55:54;;;;;;;21.58;4.47;;;;;;;;;;5046080;28;20029;-75
2023/12/30 00:58:21;;;;;;;21.33;2.33;;;;;;;;;;5045323;28;20028;-74
2023/12/30 01:00:47;;;;;;;15.98;2.30;;;;;;;;;;5046092;28;20025;-75
2023/12/30 01:03:13;;;;;;;15.65;2.55;;;;;;;;;;5046584;28;20108;-74
2023/12/30 01:05:39;;;;;;;17.88;2.58;;;;;;;;;;5044599;28;20127;-76
2023/12/30 01:08:06;;;;;;;15.98;2.65;;;;;;;;;;5038274;28;20037;-74
2023/12/30 01:10:32;;;;;;;14.05;2.20;;;;;;;;;;5046529;28;20052;-75
2023/12/30 01:12:58;;;;;;;17.88;1.98;;;;;;;;;;5046222;28;20568;-74
2023/12/30 01:15:24;;;;;;;12.88;2.38;;;;;;;;;;5047122;28;20459;-74
2023/12/30 01:17:51;;;;;;;22.35;2.70;;;;;;;;;;5045339;28;20033;-73
2023/12/30 01:20:17;;;;;;;16.80;2.10;;;;;;;;;;5044832;28;20029;-74
2023/12/30 01:22:43;;;;;;;16.08;2.75;;;;;;;;;;5043561;28;20033;-75
2023/12/30 01:25:10;;;;;;;13.90;2.25;;;;;;;;;;5045355;28;20080;-75
2023/12/30 01:27:36;;;;;;;13.50;2.42;;;;;;;;;;5044929;28;20037;-75
2023/12/30 01:30:02;;;;;;;14.65;2.65;;;;;;;;;;5045718;28;20095;-76
2023/12/30 01:32:28;;;;;;;16.83;2.78;;;;;;;;;;5046049;28;20124;-75
2023/12/30 01:34:55;;;;;;;21.08;2.38;;;;;;;;;;5047527;28;20443;-75
2023/12/30 01:37:21;;;;;;;18.75;2.50;;;;;;;;;;5045515;28;20033;-74
2023/12/30 01:39:47;;;;;;;11.30;2.42;;;;;;;;;;5046912;28;20025;-75
2023/12/30 01:42:13;;;;;;;18.40;2.38;;;;;;;;;;5028844;28;20040;-74
2023/12/30 01:44:40;;;;;;;16.52;2.50;;;;;;;;;;5028133;28;20041;-75
2023/12/30 01:47:06;;;;;;;17.70;2.10;;;;;;;;;;5046595;28;20143;-74
2023/12/30 01:49:32;;;;;;;15.23;3.35;;;;;;;;;;5049428;28;20049;-75
2023/12/30 01:51:59;;;;;;;18.83;2.65;;;;;;;;;;5032525;28;20029;-74
2023/12/30 01:54:25;;;;;;;11.63;2.20;;;;;;;;;;5031747;28;20044;-73
2023/12/30 01:56:54;;;;;;;12.98;2.10;;;;;;;;;;5049896;28;20356;-74
2023/12/30 01:59:20;;;;;;;15.45;2.63;;;;;;;;;;5049128;28;20048;-75
2023/12/30 02:01:47;;;;;;;25.00;2.70;;;;;;;;;;5050801;28;20021;-75
2023/12/30 02:04:13;;;;;;;16.40;3.50;;;;;;;;;;5049304;28;20045;-75
2023/12/30 02:06:39;;;;;;;16.13;2.53;;;;;;;;;;5047221;28;20021;-74
2023/12/30 02:09:06;;;;;;;26.30;3.78;;;;;;;;;;5048608;28;20435;-74
2023/12/30 02:11:32;;;;;;;15.43;2.50;;;;;;;;;;5049398;28;20036;-75
2023/12/30 02:13:58;;;;;;;17.63;3.22;;;;;;;;;;5049870;28;20107;-75
2023/12/30 02:16:25;;;;;;;18.83;2.50;;;;;;;;;;5031965;28;20041;-74
2023/12/30 02:18:51;;;;;;;21.25;3.13;;;;;;;;;;5049256;28;20041;-74
2023/12/30 02:21:17;;;;;;;14.90;2.70;;;;;;;;;;5048263;28;20048;-75
2023/12/30 02:23:43;;;;;;;11.55;2.30;;;;;;;;;;5048593;28;20037;-74
2023/12/30 02:26:09;;;;;;;16.98;2.28;;;;;;;;;;5050061;28;20108;-75
2023/12/30 02:28:36;;;;;;;26.13;3.38;;;;;;;;;;5031771;28;20061;-75
2023/12/30 02:31:03;;;;;;;16.67;2.95;;;;;;;;;;5031313;28;20130;-75
2023/12/30 02:33:29;;;;;;;12.32;2.30;;;;;;;;;;5048764;28;20099;-75
2023/12/30 02:35:56;;;;;;;15.98;2.13;;;;;;;;;;5046885;28;20037;-74
2023/12/30 02:38:22;;;;;;;13.23;3.15;;;;;;;;;;5048230;28;20604;-74
2023/12/30 02:40:49;;;;;;;16.35;2.75;;;;;;;;;;5048509;28;20115;-74
2023/12/30 02:43:15;;;;;;;12.57;2.22;;;;;;;;;;5050490;28;20362;-75
2023/12/30 02:45:41;;;;;;;20.83;2.42;;;;;;;;;;5046980;28;20021;-75
2023/12/30 02:48:08;;;;;;;11.07;2.10;;;;;;;;;;5031096;28;20343;-74
2023/12/30 02:50:35;;;;;;;18.00;2.28;;;;;;;;;;5048406;28;20138;-75
2023/12/30 02:53:01;;;;;;;13.48;2.10;;;;;;;;;;5047442;28;20025;-75
2023/12/30 02:55:28;;;;;;;19.27;3.13;;;;;;;;;;5032219;28;20048;-75
2023/12/30 02:57:54;;;;;;;20.77;3.00;;;;;;;;;;5047214;28;20029;-75
2023/12/30 03:00:20;;;;;;;21.70;2.63;;;;;;;;;;5048872;28;20043;-74
2023/12/30 03:02:47;;;;;;;28.20;3.13;;;;;;;;;;5049538;28;20159;-75
2023/12/30 03:05:14;;;;;;;15.23;2.88;;;;;;;;;;5048687;28;20036;-74
2023/12/30 03:07:40;;;;;;;18.02;2.83;;;;;;;;;;5048064;28;20020;-74
2023/12/30 03:10:07;;;;;;;17.60;2.45;;;;;;;;;;5049268;28;20049;-75
2023/12/30 03:12:34;;;;;;;18.35;3.15;;;;;;;;;;5032182;28;20490;-74
2023/12/30 03:15:00;;;;;;;18.10;2.38;;;;;;;;;;5047929;28;20100;-75
2023/12/30 03:17:26;;;;;;;17.17;2.67;;;;;;;;;;5047502;28;20484;-74
2023/12/30 03:19:53;;;;;;;17.58;3.38;;;;;;;;;;5047050;28;20029;-75
2023/12/30 03:22:19;;;;;;;22.10;2.50;;;;;;;;;;5050875;28;20398;-74
2023/12/30 03:24:47;;;;;;;14.27;2.03;;;;;;;;;;5047434;28;20067;-75
2023/12/30 03:27:13;;;;;;;14.23;3.13;;;;;;;;;;5048151;28;20378;-75
2023/12/30 03:29:41;;;;;;;13.18;2.10;;;;;;;;;;5049135;28;20053;-75
2023/12/30 03:32:07;;;;;;;13.48;2.33;;;;;;;;;;5048629;28;20033;-74
2023/12/30 03:34:33;;;;;;;15.07;2.45;;;;;;;;;;5029129;28;20494;-75
2023/12/30 03:37:01;;;;;;;15.95;2.35;;;;;;;;;;5046597;28;20058;-75
2023/12/30 03:39:27;;;;;;;22.90;3.47;;;;;;;;;;5029937;28;20389;-76
2023/12/30 03:41:53;;;;;;;14.25;3.08;;;;;;;;;;5049065;28;20029;-75
2023/12/30 03:44:19;;;;;;;16.20;3.67;;;;;;;;;;5048178;28;20029;-73
2023/12/30 03:46:45;;;;;;;17.77;2.65;;;;;;;;;;5048111;28;20121;-74
2023/12/30 03:49:13;;;;;;;18.30;2.58;;;;;;;;;;5045962;28;20037;-75
2023/12/30 03:51:39;;;;;;;21.17;3.10;;;;;;;;;;5047147;28;20044;-75
2023/12/30 03:54:05;;;;;;;15.82;3.22;;;;;;;;;;5044487;28;20387;-76
2023/12/30 03:56:32;;;;;;;20.42;2.63;;;;;;;;;;5046443;28;20037;-76
2023/12/30 03:58:59;;;;;;;18.17;2.85;;;;;;;;;;5044483;28;20041;-75
2023/12/30 04:01:26;;;;;;;19.25;3.40;;;;;;;;;;5044292;28;20644;-75
2023/12/30 04:03:52;;;;;;;15.38;2.95;;;;;;;;;;5027532;28;20030;-75
2023/12/30 04:06:19;;;;;;;23.27;2.65;;;;;;;;;;5046066;28;20056;-75
2023/12/30 04:08:45;;;;;;;11.93;2.28;;;;;;;;;;5044957;28;20041;-76
2023/12/30 04:11:11;;;;;;;27.10;2.75;;;;;;;;;;5045374;28;20067;-75
2023/12/30 04:13:37;;;;;;;15.18;2.40;;;;;;;;;;5045040;28;20065;-74
2023/12/30 04:16:04;;;;;;;13.68;3.10;;;;;;;;;;5044155;28;20032;-75
2023/12/30 04:18:31;;;;;;;22.77;2.72;;;;;;;;;;5043349;28;20131;-75
2023/12/30 04:20:57;;;;;;;10.52;1.95;;;;;;;;;;5026930;28;20131;-74
2023/12/30 04:23:24;;;;;;;24.17;4.70;;;;;;;;;;5028174;28;20115;-75
2023/12/30 04:25:50;;;;;;;12.35;2.53;;;;;;;;;;5043798;28;20044;-75
2023/12/30 04:28:18;;;;;;;16.65;2.40;;;;;;;;;;5042790;28;20036;-75
2023/12/30 04:30:44;;;;;;;14.18;2.53;;;;;;;;;;5044573;28;20040;-74
2023/12/30 04:33:10;;;;;;;12.93;2.33;;;;;;;;;;5044334;28;20431;-75
2023/12/30 04:35:38;;;;;;;14.50;2.53;;;;;;;;;;5044513;28;20077;-74
2023/12/30 04:38:05;;;;;;;13.77;2.42;;;;;;;;;;5026844;28;20094;-74
2023/12/30 04:40:31;;;;;;;14.85;2.28;;;;;;;;;;5043924;28;20021;-75
2023/12/30 04:42:57;;;;;;;11.20;2.42;;;;;;;;;;5044133;28;20040;-74
2023/12/30 04:45:23;;;;;;;13.35;2.50;;;;;;;;;;5043131;28;20421;-74
2023/12/30 04:47:49;;;;;;;17.20;2.95;;;;;;;;;;5042753;28;20040;-75
2023/12/30 04:50:16;;;;;;;12.48;2.05;;;;;;;;;;5041934;28;20031;-75
2023/12/30 04:52:42;;;;;;;17.63;3.60;;;;;;;;;;5044450;28;20048;-75
2023/12/30 04:55:08;;;;;;;27.13;3.60;;;;;;;;;;5026306;28;20052;-75
2023/12/30 04:57:34;;;;;;;12.25;2.40;;;;;;;;;;5043811;28;20056;-75
2023/12/30 05:00:01;;;;;;;21.20;2.35;;;;;;;;;;5043238;28;20032;-74
2023/12/30 05:02:28;;;;;;;16.02;1.95;;;;;;;;;;5044729;28;20037;-75
2023/12/30 05:04:56;;;;;;;17.40;3.00;;;;;;;;;;5026192;28;20040;-76
2023/12/30 05:07:22;;;;;;;11.73;2.67;;;;;;;;;;5044972;28;20051;-74
2023/12/30 05:09:50;;;;;;;13.27;2.63;;;;;;;;;;5044490;28;20025;-75
2023/12/30 05:12:16;;;;;;;6.18;1.65;;;;;;;;;;5043460;28;20037;-74
2023/12/30 05:14:42;;;;;;;24.10;3.20;;;;;;;;;;5044453;28;20411;-75
2023/12/30 05:17:08;;;;;;;12.13;2.22;;;;;;;;;;5043842;28;20036;-74
2023/12/30 05:19:34;;;;;;;18.38;3.00;;;;;;;;;;5026843;28;20045;-74
2023/12/30 05:22:00;;;;;;;21.55;2.80;;;;;;;;;;5047113;28;20017;-74
2023/12/30 05:24:26;;;;;;;18.20;2.42;;;;;;;;;;5049494;28;20033;-75
2023/12/30 05:26:53;;;;;;;14.60;2.38;;;;;;;;;;5050798;28;20039;-74
2023/12/30 05:29:20;;;;;;;12.18;4.05;;;;;;;;;;5033358;28;20075;-74
2023/12/30 05:31:46;;;;;;;21.40;3.17;;;;;;;;;;5040452;28;20033;-74
2023/12/30 05:34:12;;;;;;;20.02;3.45;;;;;;;;;;5050497;28;20363;-74
2023/12/30 05:36:39;;;;;;;14.75;2.40;;;;;;;;;;5050216;28;20041;-74
2023/12/30 05:39:05;;;;;;;12.63;2.95;;;;;;;;;;5050236;28;20037;-75
2023/12/30 05:41:31;;;;;;;18.80;2.70;;;;;;;;;;5052143;28;20017;-75
2023/12/30 05:43:57;;;;;;;17.83;2.58;;;;;;;;;;5033168;28;20036;-75
2023/12/30 05:46:23;;;;;;;16.52;2.97;;;;;;;;;;5047599;28;20066;-75
2023/12/30 05:48:49;;;;;;;16.15;2.20;;;;;;;;;;5050412;28;20099;-75
2023/12/30 05:51:16;;;;;;;12.38;2.22;;;;;;;;;;5049515;28;20040;-75
2023/12/30 05:53:42;;;;;;;19.38;2.63;;;;;;;;;;5050496;28;20069;-75
2023/12/30 05:56:08;;;;;;;11.00;2.45;;;;;;;;;;5051123;28;20512;-76
2023/12/30 05:58:35;;;;;;;16.30;2.63;;;;;;;;;;5051370;28;20045;-74
2023/12/30 06:01:02;;;;;;;21.02;3.20;;;;;;;;;;5051003;28;20048;-74
2023/12/30 06:03:29;;;;;;;19.08;2.30;;;;;;;;;;5050164;28;20039;-75
2023/12/30 06:05:55;;;;;;;14.05;2.53;;;;;;;;;;5050618;28;20021;-75
2023/12/30 06:08:21;;;;;;;13.00;2.60;;;;;;;;;;5050507;28;20132;-76
2023/12/30 06:10:51;;;;;;;18.23;2.42;;;;;;;;;;5051693;28;20045;-75
2023/12/30 06:13:17;;;;;;;14.63;2.30;;;;;;;;;;5050553;28;20040;-75
2023/12/30 06:15:48;;;;;;;12.90;1.95;;;;;;;;;;5053858;28;20060;-75
2023/12/30 06:18:15;;;;;;;14.88;2.15;;;;;;;;;;5053434;28;20037;-75
2023/12/30 06:20:43;;;;;;;21.08;2.70;;;;;;;;;;5052834;28;20036;-75
2023/12/30 06:23:09;;;;;;;15.57;2.10;;;;;;;;;;5053163;28;20040;-74
2023/12/30 06:25:35;;;;;;;9.40;2.95;;;;;;;;;;5036429;28;20037;-74
2023/12/30 06:28:01;;;;;;;14.40;2.60;;;;;;;;;;5050251;28;20180;-74
2023/12/30 06:30:27;;;;;;;14.65;2.67;;;;;;;;;;5054163;28;20414;-74
2023/12/30 06:32:53;;;;;;;16.45;2.55;;;;;;;;;;5053110;28;20033;-74
2023/12/30 06:35:20;;;;;;;18.00;2.95;;;;;;;;;;5053376;28;21003;-74
2023/12/30 06:37:48;;;;;;;15.35;2.92;;;;;;;;;;5048331;28;20236;-75
2023/12/30 06:40:14;;;;;;;12.60;2.17;;;;;;;;;;5049602;28;20029;-75
2023/12/30 06:42:40;;;;;;;17.65;3.05;;;;;;;;;;5049904;28;20075;-75
2023/12/30 06:45:07;;;;;;;12.50;2.22;;;;;;;;;;5050001;28;20045;-75
2023/12/30 06:47:33;;;;;;;11.73;2.83;;;;;;;;;;5048688;28;20066;-75
2023/12/30 06:49:59;;;;;;;21.13;2.42;;;;;;;;;;5050089;28;20144;-75
2023/12/30 06:52:25;;;;;;;13.55;2.20;;;;;;;;;;5050559;28;20454;-75
2023/12/30 06:54:51;;;;;;;18.73;2.40;;;;;;;;;;5048366;28;20044;-75
2023/12/30 06:57:19;;;;;;;12.32;2.40;;;;;;;;;;5049225;28;20098;-75
2023/12/30 06:59:45;;;;;;;14.23;2.50;;;;;;;;;;5049604;28;20043;-76
2023/12/30 07:02:11;;;;;;;15.32;2.90;;;;;;;;;;5048389;28;20122;-76
2023/12/30 07:04:37;;;;;;;14.85;3.22;;;;;;;;;;5049607;28;20032;-76
2023/12/30 07:07:03;;;;;;;15.30;2.60;;;;;;;;;;5047089;28;20036;-75
2023/12/30 07:09:29;;;;;;;12.80;3.13;;;;;;;;;;5049170;28;20494;-77
2023/12/30 07:11:56;;;;;;;14.65;2.53;;;;;;;;;;5049790;28;20029;-75
2023/12/30 07:14:22;;;;;;;17.77;3.25;;;;;;;;;;5047996;28;20506;-75
2023/12/30 07:16:49;;;;;;;25.40;3.63;;;;;;;;;;5049647;28;20043;-76
2023/12/30 07:19:15;;;;;;;20.10;4.05;;;;;;;;;;5047247;28;20056;-75
2023/12/30 07:21:42;;;;;;;22.15;3.97;;;;;;;;;;5048353;28;20044;-75
2023/12/30 07:24:08;;;;;;;20.85;3.10;;;;;;;;;;5048507;28;20075;-75
2023/12/30 07:26:34;;;;;;;18.45;3.15;;;;;;;;;;5049017;28;20037;-76
2023/12/30 07:29:00;;;;;;;19.52;3.72;;;;;;;;;;5029970;28;20049;-75
2023/12/30 07:31:26;;;;;;;21.10;4.07;;;;;;;;;;5049154;28;20039;-76
2023/12/30 07:33:52;;;;;;;22.10;4.55;;;;;;;;;;5048907;28;20029;-75
2023/12/30 07:36:19;;;;;;;17.95;3.60;;;;;;;;;;5046689;28;20116;-75
2023/12/30 07:38:45;;;;;;;14.50;2.95;;;;;;;;;;5048291;28;20087;-75
2023/12/30 07:41:14;;;;;;;18.65;3.47;;;;;;;;;;5048350;28;20033;-75
2023/12/30 07:43:40;;;;;;;25.80;3.70;;;;;;;;;;5045104;28;20064;-76
2023/12/30 07:46:06;;;;;;;20.48;3.85;;;;;;;;;;5049361;28;20048;-75
2023/12/30 07:48:32;;;;;;;14.57;3.03;;;;;;;;;;5047067;28;20044;-74
2023/12/30 07:50:59;;;;;;;19.00;3.53;;;;;;;;;;5049623;28;20024;-75
2023/12/30 07:53:26;;;;;;;16.92;2.88;;;;;;;;;;5048849;28;20044;-76
2023/12/30 07:55:52;;;;;;;16.35;3.10;;;;;;;;;;5049054;28;20029;-75
2023/12/30 07:58:18;;;;;;;17.63;2.85;;;;;;;;;;5046670;28;20459;-76
2023/12/30 08:00:45;;;;;;;28.52;3.13;;;;;;;;;;5048296;28;20116;-77
2023/12/30 08:03:12;;;;;;;21.95;3.10;;;;;;;;;;5028391;28;20021;-76
2023/12/30 08:05:39;;;;;;;15.63;2.65;;;;;;;;;;5029188;28;20029;-77
2023/12/30 08:08:08;;;;;;;23.33;3.38;;;;;;;;;;5045859;28;20041;-77
2023/12/30 08:10:34;;;;;;;10.98;2.30;;;;;;;;;;5048448;28;20604;-76
2023/12/30 08:13:01;;;;;;;14.85;2.90;;;;;;;;;;5027776;28;20087;-76
2023/12/30 08:15:28;;;;;;;18.27;3.33;;;;;;;;;;5045555;28;20056;-75
2023/12/30 08:17:54;;;;;;;12.85;2.75;;;;;;;;;;5049193;28;20120;-75
2023/12/30 08:20:20;;;;;;;27.25;3.63;;;;;;;;;;5051765;28;20320;-74
2023/12/30 08:22:46;;;;;;;29.17;4.88;;;;;;;;;;5062250;28;20052;-75
2023/12/30 08:25:13;;;;;;;24.67;4.55;;;;;;;;;;5056540;28;20033;-75
2023/12/30 08:27:39;;;;;;;22.30;3.50;;;;;;;;;;5047121;28;20052;-75
2023/12/30 08:30:06;;;;;;;21.73;4.10;;;;;;;;;;5045858;28;20033;-76
2023/12/30 08:32:32;;;;;;;29.38;3.13;;;;;;;;;;5034120;28;20506;-75
2023/12/30 08:35:00;;;;;;;18.40;3.33;;;;;;;;;;5048924;28;20490;-76
2023/12/30 08:37:26;;;;;;;22.58;3.58;;;;;;;;;;5059146;28;20495;-76
2023/12/30 08:39:55;;;;;;;22.27;3.70;;;;;;;;;;5035533;28;20045;-76
2023/12/30 08:42:22;;;;;;;15.65;2.65;;;;;;;;;;5049171;28;20036;-76
2023/12/30 08:44:48;;;;;;;21.23;2.85;;;;;;;;;;5048454;28;20025;-76
2023/12/30 08:47:15;;;;;;;24.60;3.45;;;;;;;;;;5045114;28;20490;-76
2023/12/30 08:49:42;;;;;;;19.42;2.90;;;;;;;;;;5047576;28;20033;-74
2023/12/30 08:52:08;;;;;;;29.33;5.10;;;;;;;;;;5044847;28;20033;-75
2023/12/30 08:54:34;;;;;;;19.85;3.08;;;;;;;;;;5030855;28;20036;-75
2023/12/30 08:57:01;;;;;;;22.08;3.67;;;;;;;;;;5047763;28;20090;-78
2023/12/30 08:59:27;;;;;;;20.42;4.32;;;;;;;;;;5048937;28;20597;-74
2023/12/30 09:01:53;;;;;;;21.42;3.28;;;;;;;;;;5047321;28;20448;-75
2023/12/30 09:04:19;;;;;;;23.52;3.13;;;;;;;;;;5047926;28;20033;-76
2023/12/30 09:06:45;;;;;;;21.73;3.70;;;;;;;;;;5064183;28;20075;-76
2023/12/30 09:09:12;;;;;;;16.92;3.05;;;;;;;;;;5062913;28;20033;-75
2023/12/30 09:11:38;;;;;;;22.55;4.63;;;;;;;;;;5047699;28;20041;-75
2023/12/30 09:14:05;;;;;;;24.88;3.45;;;;;;;;;;5047767;28;20041;-75
2023/12/30 09:16:32;;;;;;;16.98;3.80;;;;;;;;;;5048797;28;20036;-75
2023/12/30 09:18:59;;;;;;;25.65;4.07;;;;;;;;;;5067388;28;20060;-75
2023/12/30 09:21:26;;;;;;;22.27;3.95;;;;;;;;;;5065029;28;20037;-76
2023/12/30 09:23:52;;;;;;;25.13;4.38;;;;;;;;;;5049426;28;21710;-75
2023/12/30 09:26:18;;;;;;;19.02;3.75;;;;;;;;;;5042085;28;20080;-75
2023/12/30 09:28:44;;;;;;;21.60;4.90;;;;;;;;;;5053906;28;20114;-75
2023/12/30 09:31:11;;;;;;;23.95;4.03;;;;;;;;;;5047421;28;20057;-75
2023/12/30 09:33:37;;;;;;;22.00;4.18;;;;;;;;;;5064153;28;20082;-75
2023/12/30 09:36:04;;;;;;;22.88;4.32;;;;;;;;;;5052079;28;20025;-76
2023/12/30 09:38:30;;;;;;;30.48;4.55;;;;;;;;;;5049316;28;20352;-77
2023/12/30 09:40:56;;;;;;;26.42;4.78;;;;;;;;;;5047119;28;20060;-76
2023/12/30 09:43:27;;;;;;;18.80;3.63;;;;;;;;;;5035716;28;20029;-76
2023/12/30 09:45:54;;;;;;;25.13;4.22;;;;;;;;;;5046907;28;20025;-77
2023/12/30 09:48:21;;;;;;;23.60;5.03;;;;;;;;;;5063619;28;20109;-75
2023/12/30 09:50:49;;;;;;;25.60;4.82;;;;;;;;;;5046894;28;20025;-75
2023/12/30 09:53:16;;;;;;;23.80;3.50;;;;;;;;;;5045524;28;20150;-77
2023/12/30 09:55:46;;;;;;;25.17;4.57;;;;;;;;;;5044656;28;20033;-76
2023/12/30 09:58:13;;;;;;;22.83;4.87;;;;;;;;;;5046081;28;20310;-75
2023/12/30 10:00:41;;;;;;;31.35;3.78;;;;;;;;;;5046249;28;20271;-76
2023/12/30 10:03:07;;;;;;;25.90;3.63;;;;;;;;;;5045676;28;20017;-74
2023/12/30 10:05:33;;;;;;;21.77;3.95;;;;;;;;;;5046900;28;20029;-75
2023/12/30 10:08:00;;;;;;;21.67;4.20;;;;;;;;;;5046444;28;20029;-76
2023/12/30 10:10:41;;;;;;;26.50;4.18;;;;;;;;;;5052383;28;20124;-74
2023/12/30 10:13:07;;;;;;;;;;;;;;;;;;5065626;28;20028;-74
2023/12/30 10:15:33;;;;;;;23.65;4.72;;;;;;;;;;5060022;28;19920;-77
2023/12/30 10:17:59;;;;;;;28.17;5.03;;;;;;;;;;5051818;28;20033;-76
2023/12/30 10:20:25;;;;;;;19.80;4.45;;;;;;;;;;5050622;28;20401;-75
2023/12/30 10:22:52;;;;;;;22.63;4.82;;;;;;;;;;5051298;28;20037;-76
2023/12/30 10:25:18;;;;;;;25.58;4.35;;;;;;;;;;5052503;28;20057;-75
2023/12/30 10:27:49;;;;;;;21.17;3.70;;;;;;;;;;5051469;28;20681;-75
2023/12/30 10:30:21;;;;;;;18.45;3.97;;;;;;;;;;5051700;28;20053;-76
2023/12/30 10:32:47;;;;;;;17.92;3.65;;;;;;;;;;5058966;28;20040;-75
2023/12/30 10:35:14;;;;;;;21.90;4.47;;;;;;;;;;5066282;28;20032;-77
2023/12/30 10:37:42;;;;;;;24.58;3.53;;;;;;;;;;5051301;28;20028;-76
2023/12/30 10:40:10;;;;;;;19.13;4.10;;;;;;;;;;5048333;28;20059;-74
2023/12/30 10:42:41;;;;;;;21.05;4.03;;;;;;;;;;5051699;28;20079;-76
2023/12/30 10:45:07;;;;;;;26.38;4.35;;;;;;;;;;5063613;28;20017;-75
2023/12/30 10:47:40;;;;;;;26.45;5.30;;;;;;;;;;5030740;28;20029;-75
2023/12/30 10:50:07;;;;;;;15.68;3.42;;;;;;;;;;5057355;28;20033;-74
2023/12/30 10:52:35;;;;;;;32.03;4.20;;;;;;;;;;5049189;28;20096;-76
2023/12/30 10:55:14;;;;;;;18.02;3.95;;;;;;;;;;5050194;28;20036;-75
2023/12/30 10:57:42;;;;;;;25.00;3.83;;;;;;;;;;5049590;28;20024;-76
2023/12/30 11:00:09;;;;;;;27.98;5.32;;;;;;;;;;5050569;28;20056;-77
2023/12/30 11:02:36;;;;;;;32.17;5.15;;;;;;;;;;5054159;28;20036;-75
2023/12/30 11:05:06;;;;;;;30.58;4.97;;;;;;;;;;5034047;28;20068;-77
2023/12/30 11:07:32;;;;;;;29.15;4.35;;;;;;;;;;5048235;28;20036;-76
2023/12/30 11:09:58;;;;;;;25.67;4.95;;;;;;;;;;5048951;28;20477;-76
2023/12/30 11:12:29;;;;;;;23.02;4.15;;;;;;;;;;5050212;28;20482;-77
2023/12/30 11:14:56;;;;;;;29.63;4.50;;;;;;;;;;5050259;28;20032;-76
2023/12/30 11:17:37;;;;;;;18.27;4.78;;;;;;;;;;5060520;28;20036;-76
2023/12/30 11:20:23;;;;;;;25.17;5.28;;;;;;;;;;5051870;28;20119;-75
2023/12/30 11:22:55;;;;;;;27.25;4.38;;;;;;;;;;5067321;28;20033;-75
2023/12/30 11:25:21;;;;;;;25.75;5.00;;;;;;;;;;5070601;28;20032;-75
2023/12/30 11:27:48;;;;;;;32.53;5.95;;;;;;;;;;5031665;28;20028;-75
2023/12/30 11:30:17;;;;;;;26.20;5.30;;;;;;;;;;5031978;28;20048;-74
2023/12/30 11:32:45;;;;;;;29.67;5.82;;;;;;;;;;5049180;28;20111;-75
2023/12/30 11:35:13;;;;;;;27.63;6.00;;;;;;;;;;5050450;28;20079;-76
2023/12/30 11:37:46;;;;;;;27.08;5.70;;;;;;;;;;5037026;28;20033;-75
2023/12/30 11:40:16;;;;;;;35.72;6.63;;;;;;;;;;5048327;28;20527;-75
2023/12/30 11:42:43;;;;;;;28.75;6.55;;;;;;;;;;5049904;28;20104;-76
2023/12/30 11:45:10;;;;;;;27.38;7.40;;;;;;;;;;5049318;28;20025;-76
2023/12/30 11:47:37;;;;;;;25.60;8.27;;;;;;;;;;5051659;28;20033;-75
2023/12/30 11:50:04;;;;;;;28.27;7.82;;;;;;;;;;5048795;28;20049;-76
2023/12/30 11:52:30;;;;;;;31.80;8.55;;;;;;;;;;5048054;28;20029;-76
2023/12/30 11:54:56;;;;;;;42.88;10.15;;;;;;;;;;5047909;28;20103;-76
2023/12/30 11:57:22;;;;;;;42.45;9.85;;;;;;;;;;5048711;28;20129;-75
2023/12/30 11:59:49;;;;;;;37.35;10.57;;;;;;;;;;5049834;28;20072;-75
2023/12/30 12:02:18;;;;;;;32.30;9.30;;;;;;;;;;5048614;28;20037;-75
2023/12/30 12:04:44;;;;;;;40.97;10.57;;;;;;;;;;5039484;28;20033;-75
2023/12/30 12:07:11;;;;;;;39.40;10.57;;;;;;;;;;5059789;28;20032;-76
2023/12/30 12:09:40;;;;;;;34.88;9.48;;;;;;;;;;5051877;28;20094;-76
2023/12/30 12:12:07;;;;;;;37.22;10.00;;;;;;;;;;5059334;28;20032;-75
2023/12/30 12:14:33;;;;;;;33.65;10.10;;;;;;;;;;5036949;28;20080;-75
2023/12/30 12:17:03;;;;;;;34.67;10.27;;;;;;;;;;5058736;28;20036;-75
2023/12/30 12:19:30;;;;;;;32.78;10.90;;;;;;;;;;5049579;28;20049;-76
2023/12/30 12:22:00;;;;;;;41.20;10.73;;;;;;;;;;5048798;28;20044;-76
2023/12/30 12:24:26;;;;;;;39.10;11.38;;;;;;;;;;5029825;28;20097;-76
2023/12/30 12:26:53;;;;;;;34.33;11.20;;;;;;;;;;5021146;28;20140;-75
2023/12/30 12:29:19;;;;;;;26.58;11.18;;;;;;;;;;5066273;28;20056;-77
2023/12/30 12:31:46;;;;;;;40.33;12.95;;;;;;;;;;5053198;28;20029;-77
2023/12/30 12:34:20;;;;;;;42.28;14.05;;;;;;;;;;5065346;28;20807;-77
2023/12/30 12:36:46;;;;;;;40.90;13.68;;;;;;;;;;5066081;28;20410;-75
2023/12/30 12:39:12;;;;;;;34.25;14.07;;;;;;;;;;5064380;28;20051;-75
2023/12/30 12:41:38;;;;;;;44.08;15.82;;;;;;;;;;5055831;28;20044;-76
2023/12/30 12:44:04;;;;;;;42.97;16.42;;;;;;;;;;5065726;28;20038;-76
2023/12/30 12:46:31;;;;;;;49.67;19.38;;;;;;;;;;5050250;28;20033;-76
2023/12/30 12:48:59;;;;;;;41.83;17.92;;;;;;;;;;5049130;28;20099;-76
2023/12/30 12:51:26;;;;;;;49.22;18.08;;;;;;;;;;5031238;28;20063;-76
2023/12/30 12:53:54;;;;;;;43.60;18.38;;;;;;;;;;5062206;28;20032;-75
2023/12/30 12:56:21;;;;;;;37.08;18.42;;;;;;;;;;5050041;28;20490;-75
2023/12/30 12:58:47;;;;;;;46.90;18.33;;;;;;;;;;5044297;28;20021;-75
2023/12/30 13:01:13;;;;;;;40.60;18.17;;;;;;;;;;5040803;28;20041;-76
2023/12/30 13:03:39;;;;;;;45.13;17.63;;;;;;;;;;5054733;28;20025;-76
2023/12/30 13:06:12;;;;;;;42.13;19.60;;;;;;;;;;5047872;28;20047;-75
2023/12/30 13:08:40;;;;;;;32.45;15.73;;;;;;;;;;5059072;28;20454;-75
2023/12/30 13:11:06;;;;;;;37.85;16.40;;;;;;;;;;5051882;28;20029;-76
2023/12/30 13:13:32;;;;;;;43.08;17.23;;;;;;;;;;5048902;28;20041;-75
2023/12/30 13:15:59;;;;;;;32.55;14.02;;;;;;;;;;5027897;28;20036;-76
2023/12/30 13:18:26;;;;;;;35.20;15.65;;;;;;;;;;5044467;28;20409;-76
2023/12/30 13:20:52;;;;;;;31.98;13.23;;;;;;;;;;5066880;28;20028;-76
2023/12/30 13:23:18;;;;;;;34.08;13.48;;;;;;;;;;5067583;28;20094;-75
2023/12/30 13:25:46;;;;;;;43.75;15.20;;;;;;;;;;5058476;28;20040;-76
2023/12/30 13:28:16;;;;;;;37.88;13.15;;;;;;;;;;5048303;28;20048;-76
2023/12/30 13:30:43;;;;;;;41.97;14.02;;;;;;;;;;5047073;28;20048;-76
2023/12/30 13:33:12;;;;;;;35.05;12.57;;;;;;;;;;5045910;28;20033;-76
2023/12/30 13:35:39;;;;;;;40.90;14.90;;;;;;;;;;5047273;28;20029;-76
2023/12/30 13:38:24;;;;;;;38.90;15.30;;;;;;;;;;5048552;28;20075;-75
2023/12/30 13:40:55;;;;;;;28.52;13.52;;;;;;;;;;5047051;28;20041;-76
2023/12/30 13:43:26;;;;;;;41.33;14.40;;;;;;;;;;5048280;28;20021;-76
2023/12/30 13:46:00;;;;;;;39.25;15.00;;;;;;;;;;5046264;28;20067;-75
2023/12/30 13:51:15;;;;;;;35.58;13.93;;;;;;;;;;5046665;28;20557;-75
2023/12/30 13:53:42;;;;;;;30.27;12.07;;;;;;;;;;5047931;28;20025;-74
2023/12/30 13:56:15;;;;;;;32.25;11.68;;;;;;;;;;5050426;28;20039;-76
2023/12/30 13:58:43;;;;;;;27.60;10.38;;;;;;;;;;5047677;28;20031;-77
2023/12/30 14:01:09;;;;;;;27.80;10.40;;;;;;;;;;5050376;28;20028;-74
2023/12/30 14:03:37;;;;;;;26.08;9.55;;;;;;;;;;5032706;28;20047;-75
2023/12/30 14:06:05;;;;;;;29.98;8.93;;;;;;;;;;5055848;28;20037;-76
2023/12/30 14:08:42;;;;;;;24.00;8.68;;;;;;;;;;5049262;28;20021;-75
2023/12/30 14:11:30;;;;;;;29.23;9.23;;;;;;;;;;5037415;28;20296;-76
2023/12/30 14:13:58;;;;;;;28.23;8.30;;;;;;;;;;5049700;28;20028;-76
2023/12/30 14:16:24;;;;;;;23.10;8.35;;;;;;;;;;5049310;28;20068;-76
2023/12/30 14:18:51;;;;;;;22.63;7.78;;;;;;;;;;5050344;28;20098;-75
2023/12/30 14:21:17;;;;;;;30.58;7.45;;;;;;;;;;5050752;28;20029;-75
2023/12/30 14:23:43;;;;;;;33.92;7.65;;;;;;;;;;5049559;28;20032;-76
2023/12/30 14:26:10;;;;;;;25.85;6.40;;;;;;;;;;5048489;28;20032;-75
2023/12/30 14:28:36;;;;;;;26.42;7.18;;;;;;;;;;5051103;28;20029;-76
2023/12/30 14:31:02;;;;;;;37.22;13.30;;;;;;;;;;5049021;28;20063;-76